Time;durP1;ratioP1;P1;durP2;ratioP2;P2;SDS_P1;SDS_P2;PMS_P1;PMS_P2;Temp;Humidity;BMP_temperature;BMP_pressure;BME280_temperature;BME280_humidity;BME280_pressure;Samples;Min_cycle;Max_cycle;Signal;HPM_P1;HPM_P2
2022/06/30 06:04:25;;;;;;;426.83;291.10;;;;;;;;;;5084962;27;20692;-74
2022/06/30 06:06:51;;;;;;;442.00;335.63;;;;;;;;;;5066238;27;20229;-72
2022/06/30 06:09:17;;;;;;;446.10;344.73;;;;;;;;;;5067301;27;20226;-72
2022/06/30 06:11:43;;;;;;;442.37;340.03;;;;;;;;;;5067495;27;20225;-72
2022/06/30 06:14:09;;;;;;;452.37;393.00;;;;;;;;;;5093737;27;20227;-73
2022/06/30 06:16:35;;;;;;;466.10;412.40;;;;;;;;;;5058357;28;20624;-72
2022/06/30 06:19:01;;;;;;;487.53;434.90;;;;;;;;;;5073349;27;20659;-72
2022/06/30 06:21:27;;;;;;;479.87;429.17;;;;;;;;;;5091580;27;20718;-72
2022/06/30 06:23:53;;;;;;;525.87;472.80;;;;;;;;;;5089845;27;21551;-72
2022/06/30 06:26:19;;;;;;;474.13;431.63;;;;;;;;;;5058850;27;20235;-73
2022/06/30 06:31:30;;;;;;;516.77;471.33;;;;;;;;;;5047652;28;20609;-72
2022/06/30 06:33:56;;;;;;;497.90;448.77;;;;;;;;;;5056614;28;20219;-72
2022/06/30 06:36:22;;;;;;;495.67;449.20;;;;;;;;;;5047496;28;20314;-72
2022/06/30 06:38:48;;;;;;;483.93;441.27;;;;;;;;;;5063820;28;20256;-73
2022/06/30 06:41:15;;;;;;;508.87;463.67;;;;;;;;;;5064653;28;20226;-72
2022/06/30 06:43:41;;;;;;;501.00;461.20;;;;;;;;;;5062098;28;20265;-72
2022/06/30 06:46:07;;;;;;;185.57;177.23;;;;;;;;;;5064965;28;20298;-72
2022/06/30 06:48:33;;;;;;;160.00;152.95;;;;;;;;;;5073638;28;20227;-72
2022/06/30 06:50:59;;;;;;;172.35;164.63;;;;;;;;;;5043699;28;20699;-72
2022/06/30 06:53:25;;;;;;;226.57;215.75;;;;;;;;;;5049538;28;20214;-72
2022/06/30 06:55:51;;;;;;;360.90;340.42;;;;;;;;;;5028323;28;20339;-73
2022/06/30 06:58:17;;;;;;;446.95;420.08;;;;;;;;;;5057988;28;20274;-72
2022/06/30 07:00:43;;;;;;;312.52;295.92;;;;;;;;;;5065059;27;20223;-73
2022/06/30 07:03:08;;;;;;;317.10;299.80;;;;;;;;;;5056690;28;20288;-72
2022/06/30 07:05:34;;;;;;;428.08;400.88;;;;;;;;;;5045015;28;20276;-72
2022/06/30 07:08:01;;;;;;;372.70;351.77;;;;;;;;;;5036359;28;20261;-72
2022/06/30 07:10:27;;;;;;;321.92;303.23;;;;;;;;;;5017371;28;20239;-72
2022/06/30 07:12:53;;;;;;;397.17;371.80;;;;;;;;;;5058510;27;20210;-72
2022/06/30 07:15:19;;;;;;;478.50;444.45;;;;;;;;;;5011830;28;20236;-72
2022/06/30 07:17:45;;;;;;;438.05;411.48;;;;;;;;;;5029766;28;20233;-72
2022/06/30 07:20:11;;;;;;;386.10;363.45;;;;;;;;;;5024179;28;20222;-72
2022/06/30 07:22:37;;;;;;;474.00;444.77;;;;;;;;;;5041049;28;20232;-72
2022/06/30 07:25:03;;;;;;;575.92;532.42;;;;;;;;;;5015893;28;20992;-72
2022/06/30 07:27:29;;;;;;;505.95;471.02;;;;;;;;;;5042013;28;20223;-72
2022/06/30 07:29:55;;;;;;;389.58;365.67;;;;;;;;;;5018689;28;20274;-72
2022/06/30 07:32:21;;;;;;;172.57;164.82;;;;;;;;;;5023948;28;20212;-72
2022/06/30 07:34:47;;;;;;;216.40;206.30;;;;;;;;;;5022142;28;20331;-72
2022/06/30 07:37:13;;;;;;;155.32;148.38;;;;;;;;;;5036855;28;20854;-72
2022/06/30 07:39:39;;;;;;;120.90;115.40;;;;;;;;;;5036625;28;20275;-72
2022/06/30 07:42:05;;;;;;;92.70;88.50;;;;;;;;;;5019090;28;20232;-72
2022/06/30 07:44:31;;;;;;;85.13;81.28;;;;;;;;;;5003691;28;20228;-73
2022/06/30 07:46:57;;;;;;;131.10;125.28;;;;;;;;;;5032578;28;20225;-73
2022/06/30 07:49:23;;;;;;;126.25;120.63;;;;;;;;;;5014599;28;20283;-73
2022/06/30 07:51:49;;;;;;;103.63;98.93;;;;;;;;;;5038284;28;20216;-72
2022/06/30 07:54:15;;;;;;;159.05;151.95;;;;;;;;;;5035348;28;20224;-72
2022/06/30 07:56:41;;;;;;;125.50;119.90;;;;;;;;;;5039293;28;20281;-73
2022/06/30 07:59:07;;;;;;;172.40;164.25;;;;;;;;;;4997993;28;20220;-72
2022/06/30 08:01:33;;;;;;;168.05;160.55;;;;;;;;;;5017586;28;20316;-72
2022/06/30 08:03:59;;;;;;;133.55;127.57;;;;;;;;;;5011431;28;20240;-73
2022/06/30 08:06:25;;;;;;;177.70;169.38;;;;;;;;;;5043136;28;20224;-72
2022/06/30 08:08:51;;;;;;;166.40;159.02;;;;;;;;;;5037843;28;20240;-72
2022/06/30 08:11:18;;;;;;;159.25;152.18;;;;;;;;;;5033455;28;20215;-73
2022/06/30 08:13:44;;;;;;;226.43;216.10;;;;;;;;;;5049650;28;20323;-73
2022/06/30 08:16:13;;;;;;;147.80;141.20;;;;;;;;;;5029370;28;20626;-72
2022/06/30 08:18:39;;;;;;;192.15;183.57;;;;;;;;;;5050712;28;20224;-72
2022/06/30 08:21:06;;;;;;;175.68;167.77;;;;;;;;;;5049345;28;20232;-73
2022/06/30 08:23:32;;;;;;;332.40;311.58;;;;;;;;;;5055174;28;20216;-72
2022/06/30 08:25:58;;;;;;;104.03;99.30;;;;;;;;;;5006982;28;20218;-73
2022/06/30 08:28:24;;;;;;;31.98;30.45;;;;;;;;;;5010546;28;20843;-72
2022/06/30 08:30:50;;;;;;;30.25;28.83;;;;;;;;;;5042314;28;21114;-72
2022/06/30 08:33:16;;;;;;;156.00;148.55;;;;;;;;;;5043156;28;20239;-72
2022/06/30 08:35:43;;;;;;;28.85;27.52;;;;;;;;;;5039319;28;20255;-71
2022/06/30 08:38:09;;;;;;;7.47;7.15;;;;;;;;;;5021983;28;20223;-71
2022/06/30 08:43:19;;;;;;;4.40;4.20;;;;;;;;;;5048294;28;20302;-71
2022/06/30 08:45:46;;;;;;;2.85;2.75;;;;;;;;;;5017878;28;20726;-72
2022/06/30 08:48:12;;;;;;;8.07;7.72;;;;;;;;;;5018292;28;20215;-73
2022/06/30 08:50:39;;;;;;;12.52;11.98;;;;;;;;;;5010985;28;20224;-72
2022/06/30 08:53:05;;;;;;;15.73;15.02;;;;;;;;;;5004351;28;20220;-72
2022/06/30 08:55:32;;;;;;;16.17;15.45;;;;;;;;;;5014812;28;20274;-72
2022/06/30 08:58:04;;;;;;;22.63;21.58;;;;;;;;;;5027661;28;20351;-72
2022/06/30 09:00:30;;;;;;;16.25;15.52;;;;;;;;;;5036853;28;20312;-72
2022/06/30 09:02:56;;;;;;;7.45;7.15;;;;;;;;;;5016783;28;20231;-72
2022/06/30 09:05:22;;;;;;;23.00;21.92;;;;;;;;;;5042187;28;20219;-72
2022/06/30 09:07:48;;;;;;;88.68;84.45;;;;;;;;;;5060365;28;20269;-73
2022/06/30 09:10:14;;;;;;;57.22;54.50;;;;;;;;;;5050902;28;20227;-74
2022/06/30 09:12:41;;;;;;;8.00;7.65;;;;;;;;;;5047789;28;20242;-73
2022/06/30 09:15:07;;;;;;;11.07;10.60;;;;;;;;;;5025812;28;20224;-72
2022/06/30 09:17:33;;;;;;;60.65;57.75;;;;;;;;;;5042910;28;20228;-74
2022/06/30 09:20:00;;;;;;;10.35;9.90;;;;;;;;;;5037360;28;20223;-72
2022/06/30 09:22:30;;;;;;;16.45;15.70;;;;;;;;;;5028897;28;20751;-72
2022/06/30 09:24:58;;;;;;;31.00;29.55;;;;;;;;;;5053685;28;20246;-72
2022/06/30 09:27:24;;;;;;;32.58;31.08;;;;;;;;;;5022527;28;20221;-73
2022/06/30 09:29:50;;;;;;;106.07;100.93;;;;;;;;;;5034386;28;20223;-72
2022/06/30 09:32:16;;;;;;;5.53;5.30;;;;;;;;;;5056170;28;20686;-72
2022/06/30 09:34:43;;;;;;;25.38;24.17;;;;;;;;;;5043435;28;20240;-73
2022/06/30 09:37:16;;;;;;;101.60;96.38;;;;;;;;;;5045238;28;20224;-72
2022/06/30 09:39:43;;;;;;;42.65;40.60;;;;;;;;;;5040875;28;20694;-72
2022/06/30 09:42:09;;;;;;;73.00;69.43;;;;;;;;;;5031988;28;20212;-72
2022/06/30 09:44:35;;;;;;;98.50;93.80;;;;;;;;;;5055027;28;21096;-72
2022/06/30 09:47:02;;;;;;;111.68;106.43;;;;;;;;;;5057011;28;20266;-72
2022/06/30 09:49:36;;;;;;;28.17;26.85;;;;;;;;;;5047616;28;20222;-72
2022/06/30 09:52:02;;;;;;;102.90;98.00;;;;;;;;;;5054552;28;20943;-71
2022/06/30 09:54:28;;;;;;;93.30;88.78;;;;;;;;;;5025677;28;20318;-72
2022/06/30 09:57:07;;;;;;;155.13;147.60;;;;;;;;;;5038598;28;20303;-71
2022/06/30 09:59:33;;;;;;;134.25;127.82;;;;;;;;;;5046875;28;20215;-71
2022/06/30 10:01:59;;;;;;;35.75;34.05;;;;;;;;;;5048271;28;20230;-72
2022/06/30 10:04:25;;;;;;;43.80;41.67;;;;;;;;;;5019509;28;20226;-73
2022/06/30 10:06:52;;;;;;;52.85;50.30;;;;;;;;;;5027877;28;20212;-73
2022/06/30 10:09:18;;;;;;;71.40;67.93;;;;;;;;;;5050077;28;20626;-72
2022/06/30 10:11:44;;;;;;;64.85;61.70;;;;;;;;;;5013426;28;20242;-74
2022/06/30 10:14:11;;;;;;;94.32;89.75;;;;;;;;;;5034316;28;20235;-74
2022/06/30 10:16:40;;;;;;;70.60;67.15;;;;;;;;;;5046236;28;20238;-73
2022/06/30 10:19:07;;;;;;;41.88;39.85;;;;;;;;;;5032357;28;20220;-74
2022/06/30 10:21:33;;;;;;;36.95;35.17;;;;;;;;;;5036338;28;20215;-73
2022/06/30 10:23:59;;;;;;;9.75;9.35;;;;;;;;;;5028108;28;20223;-75
2022/06/30 10:29:10;;;;;;;3.30;3.20;;;;;;;;;;5040996;28;20714;-73
2022/06/30 10:31:38;;;;;;;2.95;2.85;;;;;;;;;;5029877;28;20220;-73
2022/06/30 10:34:07;;;;;;;3.85;3.70;;;;;;;;;;5042415;28;20231;-74
2022/06/30 10:36:38;;;;;;;40.92;38.67;;;;;;;;;;5049738;28;20226;-73
2022/06/30 10:39:07;;;;;;;23.40;22.13;;;;;;;;;;5036805;28;20247;-74
2022/06/30 10:41:32;;;;;;;26.35;24.90;;;;;;;;;;5018762;28;20223;-73
2022/06/30 10:44:05;;;;;;;29.58;27.95;;;;;;;;;;5050683;28;20708;-74
2022/06/30 10:46:31;;;;;;;116.97;111.00;;;;;;;;;;5032428;28;20232;-74
2022/06/30 10:48:57;;;;;;;16.10;15.35;;;;;;;;;;5041619;28;20230;-74
2022/06/30 10:51:23;;;;;;;11.82;11.30;;;;;;;;;;5061290;28;20271;-74
2022/06/30 10:53:52;;;;;;;156.13;147.90;;;;;;;;;;5049095;28;20236;-73
2022/06/30 10:56:18;;;;;;;2.88;2.78;;;;;;;;;;5044588;28;20268;-74
2022/06/30 10:59:03;;;;;;;2.80;2.70;;;;;;;;;;5046754;28;20220;-74
2022/06/30 11:01:29;;;;;;;2.70;2.60;;;;;;;;;;5046680;28;20215;-73
2022/06/30 11:03:55;;;;;;;2.85;2.75;;;;;;;;;;5038758;28;20248;-72
2022/06/30 11:06:21;;;;;;;2.90;2.80;;;;;;;;;;5045897;28;20265;-74
2022/06/30 11:08:48;;;;;;;2.97;2.88;;;;;;;;;;5029662;28;20223;-74
2022/06/30 11:11:23;;;;;;;4.30;4.10;;;;;;;;;;5045442;28;20288;-74
2022/06/30 11:13:49;;;;;;;7.50;7.20;;;;;;;;;;5030473;28;20227;-74
2022/06/30 11:16:16;;;;;;;16.75;15.98;;;;;;;;;;5046380;28;20250;-74
2022/06/30 11:18:42;;;;;;;9.93;9.50;;;;;;;;;;5032558;28;20268;-74
2022/06/30 11:21:08;;;;;;;3.00;2.90;;;;;;;;;;5028961;28;20230;-73
2022/06/30 11:23:44;;;;;;;3.00;2.90;;;;;;;;;;5050704;28;20295;-73
2022/06/30 11:28:55;;;;;;;3.22;3.13;;;;;;;;;;5052323;28;20226;-74
2022/06/30 11:31:25;;;;;;;2.38;2.28;;;;;;;;;;5046374;28;20576;-74
2022/06/30 11:34:17;;;;;;;3.50;3.40;;;;;;;;;;5047690;28;20279;-73
2022/06/30 11:36:44;;;;;;;2.40;2.30;;;;;;;;;;5054016;28;21068;-74
2022/06/30 11:39:10;;;;;;;2.53;2.42;;;;;;;;;;5038715;28;20288;-74
2022/06/30 11:41:55;;;;;;;3.72;3.60;;;;;;;;;;5045512;28;20224;-73
2022/06/30 11:44:25;;;;;;;3.03;2.92;;;;;;;;;;5041447;28;20219;-73
2022/06/30 11:46:51;;;;;;;6.35;6.07;;;;;;;;;;5036407;28;20597;-74
2022/06/30 11:49:17;;;;;;;3.55;3.45;;;;;;;;;;5041655;28;20216;-74
2022/06/30 11:51:43;;;;;;;4.43;4.25;;;;;;;;;;5057872;28;20698;-73
2022/06/30 11:54:09;;;;;;;7.00;6.68;;;;;;;;;;5026994;28;20254;-74
2022/06/30 11:56:48;;;;;;;5.28;5.07;;;;;;;;;;5022032;28;20303;-74
2022/06/30 11:59:14;;;;;;;4.88;4.68;;;;;;;;;;5022544;28;20267;-74
2022/06/30 12:01:40;;;;;;;3.72;3.63;;;;;;;;;;5034821;28;20671;-74
2022/06/30 12:04:13;;;;;;;16.58;15.80;;;;;;;;;;5031466;28;20234;-74
2022/06/30 12:06:39;;;;;;;38.60;36.65;;;;;;;;;;5022885;28;20222;-74
2022/06/30 12:09:05;;;;;;;39.13;37.15;;;;;;;;;;5039273;28;20223;-74
2022/06/30 12:11:31;;;;;;;31.48;29.92;;;;;;;;;;4999409;28;20233;-74
2022/06/30 12:13:57;;;;;;;18.90;18.05;;;;;;;;;;5045046;28;20249;-74
2022/06/30 12:16:23;;;;;;;6.35;6.10;;;;;;;;;;5028920;28;20220;-74
2022/06/30 12:18:49;;;;;;;5.03;4.82;;;;;;;;;;5046004;28;20225;-74
2022/06/30 12:21:15;;;;;;;9.95;9.50;;;;;;;;;;5050687;28;20674;-73
2022/06/30 12:23:42;;;;;;;10.77;10.27;;;;;;;;;;5051311;28;20586;-74
2022/06/30 12:26:08;;;;;;;10.90;10.43;;;;;;;;;;5016098;28;20226;-73
2022/06/30 12:28:52;;;;;;;84.90;80.70;;;;;;;;;;5034162;28;20216;-73
2022/06/30 12:31:25;;;;;;;108.82;103.40;;;;;;;;;;5030689;28;20374;-74
2022/06/30 12:33:52;;;;;;;49.25;46.85;;;;;;;;;;5049649;28;20231;-73
2022/06/30 12:36:17;;;;;;;46.63;44.38;;;;;;;;;;5034241;28;20240;-74
2022/06/30 12:38:43;;;;;;;29.10;27.73;;;;;;;;;;5025725;28;20599;-73
2022/06/30 12:41:11;;;;;;;19.05;18.15;;;;;;;;;;5036145;28;20656;-73
2022/06/30 12:43:50;;;;;;;59.95;57.00;;;;;;;;;;5048064;28;20685;-73
2022/06/30 12:46:16;;;;;;;5.20;5.00;;;;;;;;;;5039206;28;21049;-73
2022/06/30 12:48:44;;;;;;;4.90;4.68;;;;;;;;;;5031818;28;20216;-73
2022/06/30 12:51:10;;;;;;;30.20;28.73;;;;;;;;;;5020015;28;20250;-73
2022/06/30 12:53:38;;;;;;;48.58;46.20;;;;;;;;;;5038587;28;20228;-73
2022/06/30 12:56:08;;;;;;;45.70;43.45;;;;;;;;;;5050770;28;20210;-74
2022/06/30 12:58:47;;;;;;;229.35;218.23;;;;;;;;;;5029663;28;20228;-74
2022/06/30 13:01:14;;;;;;;198.77;188.95;;;;;;;;;;5024613;28;20221;-73
2022/06/30 13:03:53;;;;;;;124.22;118.07;;;;;;;;;;5040278;28;20309;-74
2022/06/30 13:06:19;;;;;;;115.70;109.50;;;;;;;;;;5037960;28;20224;-74
2022/06/30 13:08:46;;;;;;;26.88;25.45;;;;;;;;;;5044889;28;20234;-72
2022/06/30 13:11:15;;;;;;;9.90;9.48;;;;;;;;;;5028734;28;20225;-73
2022/06/30 13:13:41;;;;;;;17.80;16.95;;;;;;;;;;5040598;28;20225;-73
2022/06/30 13:16:07;;;;;;;58.08;55.17;;;;;;;;;;5036868;28;20215;-74
2022/06/30 13:18:33;;;;;;;20.75;19.75;;;;;;;;;;5053068;28;20216;-73
2022/06/30 13:20:59;;;;;;;223.32;211.10;;;;;;;;;;5026002;28;20303;-73
2022/06/30 13:23:25;;;;;;;282.08;266.73;;;;;;;;;;5036893;28;20219;-73
2022/06/30 13:25:51;;;;;;;382.40;362.05;;;;;;;;;;5016896;28;20733;-73
2022/06/30 13:28:17;;;;;;;337.25;319.38;;;;;;;;;;5042833;28;20231;-73
2022/06/30 13:30:43;;;;;;;109.32;103.85;;;;;;;;;;5050407;28;20710;-73
2022/06/30 13:33:09;;;;;;;50.33;47.85;;;;;;;;;;5040286;28;20231;-72
2022/06/30 13:35:35;;;;;;;41.05;39.08;;;;;;;;;;5041303;28;20730;-73
2022/06/30 13:38:00;;;;;;;47.15;44.83;;;;;;;;;;5039998;28;20681;-73
2022/06/30 13:40:26;;;;;;;12.60;12.02;;;;;;;;;;5053303;28;20693;-74
2022/06/30 13:42:52;;;;;;;59.58;56.45;;;;;;;;;;5034815;28;20222;-73
2022/06/30 13:45:18;;;;;;;15.10;14.30;;;;;;;;;;5043295;28;20211;-73
2022/06/30 13:47:44;;;;;;;3.00;2.90;;;;;;;;;;5030448;28;20274;-73
2022/06/30 13:50:10;;;;;;;3.13;3.03;;;;;;;;;;5030889;28;20710;-72
2022/06/30 13:52:36;;;;;;;3.50;3.40;;;;;;;;;;5032311;28;20223;-72
2022/06/30 13:55:02;;;;;;;2.22;2.13;;;;;;;;;;5058344;28;20696;-72
2022/06/30 13:57:28;;;;;;;1.63;1.63;;;;;;;;;;5055606;28;20223;-72
2022/06/30 13:59:54;;;;;;;1.52;1.52;;;;;;;;;;5052189;28;20729;-72
2022/06/30 14:02:20;;;;;;;1.40;1.40;;;;;;;;;;5023934;28;20243;-72
2022/06/30 14:04:46;;;;;;;1.35;1.35;;;;;;;;;;5036155;28;20223;-72
2022/06/30 14:07:12;;;;;;;1.33;1.33;;;;;;;;;;5034244;28;20232;-72
2022/06/30 14:09:38;;;;;;;1.35;1.35;;;;;;;;;;5037445;28;20319;-71
2022/06/30 14:12:05;;;;;;;1.30;1.30;;;;;;;;;;5050079;28;20586;-72
2022/06/30 14:14:31;;;;;;;1.50;1.50;;;;;;;;;;5029976;28;21216;-72
2022/06/30 14:16:57;;;;;;;1.42;1.42;;;;;;;;;;5038814;28;20218;-72
2022/06/30 14:19:23;;;;;;;1.58;1.58;;;;;;;;;;5025544;28;20700;-72
2022/06/30 14:21:49;;;;;;;1.30;1.30;;;;;;;;;;5049918;28;20219;-72
2022/06/30 14:24:16;;;;;;;1.30;1.30;;;;;;;;;;5032417;28;20234;-72
2022/06/30 14:26:42;;;;;;;1.10;1.10;;;;;;;;;;5036987;28;20216;-72
2022/06/30 14:29:09;;;;;;;1.10;1.10;;;;;;;;;;5023871;28;20224;-73
2022/06/30 14:31:35;;;;;;;1.05;1.05;;;;;;;;;;5043235;28;20211;-72
2022/06/30 14:34:01;;;;;;;1.23;1.23;;;;;;;;;;5045395;28;20325;-71
2022/06/30 14:36:27;;;;;;;1.20;1.20;;;;;;;;;;5042598;28;20257;-72
2022/06/30 14:38:53;;;;;;;1.10;1.10;;;;;;;;;;5028281;28;20324;-72
2022/06/30 14:44:04;;;;;;;1.20;1.20;;;;;;;;;;5037073;28;20245;-72
2022/06/30 14:46:30;;;;;;;1.40;1.40;;;;;;;;;;5048758;28;20207;-71
2022/06/30 14:48:55;;;;;;;1.30;1.30;;;;;;;;;;5054821;28;20231;-71
2022/06/30 14:51:21;;;;;;;1.10;1.10;;;;;;;;;;5059440;28;20258;-73
2022/06/30 14:53:47;;;;;;;1.20;1.20;;;;;;;;;;5046772;28;20277;-72
2022/06/30 14:56:13;;;;;;;1.10;1.10;;;;;;;;;;5044908;28;20219;-72
2022/06/30 14:58:39;;;;;;;1.20;1.20;;;;;;;;;;5051697;28;20212;-73
2022/06/30 15:01:05;;;;;;;1.10;1.10;;;;;;;;;;5044586;28;20656;-72
2022/06/30 15:03:36;;;;;;;1.13;1.13;;;;;;;;;;5046689;28;20368;-72
2022/06/30 15:06:02;;;;;;;1.02;1.02;;;;;;;;;;5020508;28;20215;-72
2022/06/30 15:08:27;;;;;;;1.20;1.20;;;;;;;;;;5048888;28;20291;-72
2022/06/30 15:10:53;;;;;;;1.20;1.20;;;;;;;;;;5064754;28;20215;-72
2022/06/30 15:13:19;;;;;;;1.30;1.30;;;;;;;;;;5056912;28;20590;-72
2022/06/30 15:15:45;;;;;;;1.20;1.20;;;;;;;;;;5014270;28;20231;-73
2022/06/30 15:18:11;;;;;;;1.20;1.20;;;;;;;;;;5042953;28;20231;-72
2022/06/30 15:20:37;;;;;;;1.20;1.20;;;;;;;;;;5040127;28;20215;-71
2022/06/30 15:25:48;;;;;;;1.20;1.20;;;;;;;;;;5057863;27;20222;-72
2022/06/30 15:28:14;;;;;;;1.27;1.27;;;;;;;;;;5038889;28;20632;-72
2022/06/30 15:30:40;;;;;;;1.45;1.45;;;;;;;;;;5054513;28;20215;-71
2022/06/30 15:33:06;;;;;;;1.60;1.60;;;;;;;;;;5031411;28;20236;-73
2022/06/30 15:35:32;;;;;;;1.77;1.67;;;;;;;;;;5036729;28;20248;-73
2022/06/30 15:37:58;;;;;;;1.40;1.40;;;;;;;;;;5028863;28;20229;-74
2022/06/30 15:40:25;;;;;;;1.40;1.40;;;;;;;;;;5034615;28;20582;-74
2022/06/30 15:42:51;;;;;;;1.85;1.75;;;;;;;;;;5049742;28;20223;-72
2022/06/30 15:45:22;;;;;;;1.40;1.40;;;;;;;;;;5031690;28;20254;-72
2022/06/30 15:47:49;;;;;;;1.40;1.40;;;;;;;;;;5039539;28;20218;-73
2022/06/30 15:50:16;;;;;;;1.45;1.45;;;;;;;;;;5054397;28;20310;-72
2022/06/30 15:52:45;;;;;;;1.30;1.30;;;;;;;;;;5053976;28;20223;-72
2022/06/30 15:55:12;;;;;;;1.40;1.40;;;;;;;;;;5055035;28;20219;-73
2022/06/30 15:57:41;;;;;;;1.30;1.30;;;;;;;;;;5054627;27;20303;-72
2022/06/30 16:00:08;;;;;;;1.10;1.10;;;;;;;;;;5032973;28;20616;-72
2022/06/30 16:02:34;;;;;;;1.30;1.30;;;;;;;;;;5048848;28;20247;-73
2022/06/30 16:05:00;;;;;;;1.42;1.42;;;;;;;;;;5047322;28;20303;-73
2022/06/30 16:07:26;;;;;;;1.30;1.30;;;;;;;;;;5050864;28;20289;-73
2022/06/30 16:09:52;;;;;;;1.42;1.42;;;;;;;;;;5044491;28;20704;-71
2022/06/30 16:12:18;;;;;;;1.45;1.45;;;;;;;;;;5041089;28;26582;-71
2022/06/30 16:14:45;;;;;;;1.20;1.20;;;;;;;;;;5054982;28;20228;-71
2022/06/30 16:17:11;;;;;;;1.40;1.40;;;;;;;;;;5042488;28;20226;-70
2022/06/30 16:19:38;;;;;;;1.20;1.20;;;;;;;;;;5051022;28;20231;-71
2022/06/30 16:22:05;;;;;;;1.27;1.27;;;;;;;;;;5055398;28;20216;-71
2022/06/30 16:24:31;;;;;;;1.15;1.15;;;;;;;;;;5046217;28;20261;-71
2022/06/30 16:26:57;;;;;;;1.23;1.23;;;;;;;;;;5008987;28;20685;-72
2022/06/30 16:29:24;;;;;;;1.00;1.00;;;;;;;;;;5041243;28;20239;-72
2022/06/30 16:31:50;;;;;;;1.10;1.10;;;;;;;;;;5041162;28;20230;-72
2022/06/30 16:34:16;;;;;;;1.10;1.10;;;;;;;;;;5044140;28;20921;-71
2022/06/30 16:36:42;;;;;;;0.93;0.93;;;;;;;;;;5056881;28;20206;-72
2022/06/30 16:39:08;;;;;;;0.80;0.80;;;;;;;;;;5020782;28;20392;-71
2022/06/30 16:41:35;;;;;;;0.90;0.90;;;;;;;;;;5052005;28;20224;-72
2022/06/30 16:44:02;;;;;;;0.90;0.90;;;;;;;;;;5027460;28;20673;-73
2022/06/30 16:46:28;;;;;;;0.80;0.80;;;;;;;;;;5061741;28;20250;-73
2022/06/30 16:48:54;;;;;;;0.80;0.80;;;;;;;;;;5063286;28;20306;-72
2022/06/30 16:51:21;;;;;;;0.90;0.90;;;;;;;;;;5065532;28;20222;-73
2022/06/30 16:53:47;;;;;;;1.00;1.00;;;;;;;;;;5069270;28;20245;-72
2022/06/30 16:56:13;;;;;;;0.90;0.90;;;;;;;;;;5044848;28;20218;-72
2022/06/30 16:58:39;;;;;;;0.80;0.80;;;;;;;;;;5064353;28;20229;-72
2022/06/30 17:01:08;;;;;;;1.00;1.00;;;;;;;;;;5048187;28;21523;-72
2022/06/30 17:03:34;;;;;;;0.90;0.90;;;;;;;;;;5061648;28;20753;-71
2022/06/30 17:06:00;;;;;;;0.90;0.90;;;;;;;;;;5063117;28;20730;-71
2022/06/30 17:08:26;;;;;;;0.88;0.88;;;;;;;;;;5055417;28;20317;-71
2022/06/30 17:11:13;;;;;;;0.90;0.90;;;;;;;;;;5067133;28;20582;-72
2022/06/30 17:13:38;;;;;;;0.98;0.98;;;;;;;;;;5064540;28;20366;-73
2022/06/30 17:16:04;;;;;;;1.02;1.02;;;;;;;;;;5061607;28;20222;-72
2022/06/30 17:18:30;;;;;;;1.00;1.00;;;;;;;;;;5051042;28;20730;-71
2022/06/30 17:20:56;;;;;;;1.00;1.00;;;;;;;;;;5059400;28;20244;-71
2022/06/30 17:23:22;;;;;;;1.00;1.00;;;;;;;;;;5053179;28;20219;-71
2022/06/30 17:25:48;;;;;;;0.90;0.90;;;;;;;;;;5044903;28;20223;-71
2022/06/30 17:28:14;;;;;;;0.90;0.90;;;;;;;;;;5049138;28;20229;-73
2022/06/30 17:30:40;;;;;;;1.05;1.05;;;;;;;;;;5046053;28;20334;-71
2022/06/30 17:33:08;;;;;;;1.10;1.10;;;;;;;;;;5060773;28;20268;-71
2022/06/30 17:35:34;;;;;;;1.20;1.20;;;;;;;;;;5061694;28;20244;-72
2022/06/30 17:38:00;;;;;;;1.10;1.10;;;;;;;;;;5045829;28;20322;-73
2022/06/30 17:40:26;;;;;;;1.00;1.00;;;;;;;;;;5068199;28;20248;-72
2022/06/30 17:42:52;;;;;;;1.10;1.10;;;;;;;;;;5061068;28;20226;-72
2022/06/30 17:45:19;;;;;;;1.05;1.05;;;;;;;;;;5060054;28;20230;-72
2022/06/30 17:47:44;;;;;;;1.00;1.00;;;;;;;;;;5057161;28;20301;-72
2022/06/30 17:50:10;;;;;;;1.00;1.00;;;;;;;;;;5046520;28;20207;-72
2022/06/30 17:52:37;;;;;;;0.80;0.80;;;;;;;;;;5056303;28;20747;-72
2022/06/30 17:55:03;;;;;;;0.80;0.80;;;;;;;;;;5052624;28;20238;-72
2022/06/30 17:57:29;;;;;;;0.82;0.82;;;;;;;;;;5039359;28;20222;-72
2022/06/30 17:59:55;;;;;;;0.80;0.80;;;;;;;;;;5043278;28;20604;-72
2022/06/30 18:02:21;;;;;;;0.80;0.80;;;;;;;;;;5034890;28;20962;-73
2022/06/30 18:04:54;;;;;;;0.80;0.80;;;;;;;;;;5030308;28;20314;-73
2022/06/30 18:12:51;;;;;;;1.00;1.00;;;;;;;;;;5045854;28;20289;-72
2022/06/30 18:15:17;;;;;;;0.80;0.80;;;;;;;;;;5041327;28;20219;-71
2022/06/30 18:17:43;;;;;;;0.70;0.70;;;;;;;;;;5029027;28;20257;-73
2022/06/30 18:20:09;;;;;;;0.80;0.80;;;;;;;;;;5030162;28;20297;-72
2022/06/30 18:22:36;;;;;;;0.80;0.80;;;;;;;;;;5041236;28;20215;-72
2022/06/30 18:25:02;;;;;;;0.85;0.85;;;;;;;;;;5048196;28;20715;-72
2022/06/30 18:27:28;;;;;;;0.90;0.90;;;;;;;;;;5038310;28;20264;-72
2022/06/30 18:29:54;;;;;;;0.80;0.80;;;;;;;;;;5039393;28;20215;-71
2022/06/30 18:32:22;;;;;;;0.90;0.90;;;;;;;;;;5046075;28;20838;-72
2022/06/30 18:34:48;;;;;;;0.80;0.80;;;;;;;;;;5033424;28;20234;-72
2022/06/30 18:37:14;;;;;;;0.85;0.85;;;;;;;;;;5052032;28;21056;-71
2022/06/30 18:39:40;;;;;;;0.85;0.85;;;;;;;;;;5027594;28;20218;-72
2022/06/30 18:42:06;;;;;;;0.90;0.90;;;;;;;;;;5030950;28;20283;-72
2022/06/30 18:44:32;;;;;;;0.88;0.88;;;;;;;;;;5036292;28;20245;-72
2022/06/30 18:47:01;;;;;;;0.88;0.88;;;;;;;;;;5038389;28;20234;-71
2022/06/30 18:49:27;;;;;;;0.90;0.90;;;;;;;;;;5027319;28;20270;-72
2022/06/30 18:51:53;;;;;;;0.90;0.90;;;;;;;;;;5052989;28;20614;-71
2022/06/30 18:54:19;;;;;;;0.90;0.90;;;;;;;;;;5035654;28;20238;-72
2022/06/30 18:56:45;;;;;;;1.00;1.00;;;;;;;;;;5034693;28;20222;-72
2022/06/30 18:59:11;;;;;;;0.85;0.85;;;;;;;;;;5047443;28;20222;-72
2022/06/30 19:01:37;;;;;;;0.90;0.90;;;;;;;;;;5034901;28;21115;-71
2022/06/30 19:04:03;;;;;;;0.90;0.90;;;;;;;;;;5044536;28;20243;-72
2022/06/30 19:06:29;;;;;;;0.90;0.90;;;;;;;;;;5029730;28;20273;-72
2022/06/30 19:08:55;;;;;;;0.90;0.90;;;;;;;;;;5056270;28;20235;-72
2022/06/30 19:11:21;;;;;;;0.90;0.90;;;;;;;;;;5040987;28;20225;-72
2022/06/30 19:13:47;;;;;;;0.90;0.90;;;;;;;;;;5051139;28;20914;-72
2022/06/30 19:16:13;;;;;;;0.83;0.83;;;;;;;;;;5059520;28;20336;-72
2022/06/30 19:18:39;;;;;;;0.90;0.90;;;;;;;;;;5067558;28;20678;-72
2022/06/30 19:21:08;;;;;;;0.80;0.80;;;;;;;;;;5034856;28;20314;-72
2022/06/30 19:23:35;;;;;;;1.10;1.10;;;;;;;;;;5055460;28;20219;-72
2022/06/30 19:26:02;;;;;;;0.90;0.90;;;;;;;;;;5056529;28;20206;-72
2022/06/30 19:28:28;;;;;;;0.90;0.90;;;;;;;;;;5060687;28;21199;-72
2022/06/30 19:30:56;;;;;;;0.90;0.90;;;;;;;;;;5069889;28;20235;-72
2022/06/30 19:33:22;;;;;;;0.80;0.80;;;;;;;;;;5053524;28;20250;-73
2022/06/30 19:35:49;;;;;;;0.90;0.90;;;;;;;;;;5038093;28;22000;-73
2022/06/30 19:38:16;;;;;;;0.90;0.90;;;;;;;;;;5054909;28;20296;-72
2022/06/30 19:40:42;;;;;;;0.80;0.80;;;;;;;;;;5060849;28;20730;-73
2022/06/30 19:43:09;;;;;;;0.80;0.80;;;;;;;;;;5061307;28;20232;-72
2022/06/30 19:45:35;;;;;;;0.90;0.90;;;;;;;;;;5060816;28;20712;-73
2022/06/30 19:48:01;;;;;;;0.80;0.80;;;;;;;;;;5068068;28;20219;-72
2022/06/30 19:50:27;;;;;;;0.80;0.80;;;;;;;;;;5060842;28;20713;-72
2022/06/30 19:52:53;;;;;;;0.70;0.70;;;;;;;;;;5055062;28;20280;-72
2022/06/30 19:55:19;;;;;;;0.70;0.70;;;;;;;;;;5047802;28;20218;-72
2022/06/30 19:57:45;;;;;;;0.90;0.90;;;;;;;;;;5048914;28;20708;-73
2022/06/30 20:00:14;;;;;;;0.87;0.87;;;;;;;;;;5044248;28;20222;-72
2022/06/30 20:05:24;;;;;;;0.70;0.70;;;;;;;;;;5062027;28;20320;-74
2022/06/30 20:13:19;;;;;;;0.80;0.80;;;;;;;;;;5051771;28;20328;-74
2022/06/30 20:15:45;;;;;;;0.80;0.80;;;;;;;;;;5068732;28;20279;-75
2022/06/30 20:18:11;;;;;;;0.70;0.70;;;;;;;;;;5082263;28;20251;-74
2022/06/30 20:20:38;;;;;;;0.90;0.90;;;;;;;;;;5063081;28;20808;-73
2022/06/30 20:23:04;;;;;;;1.30;1.30;;;;;;;;;;5027571;28;20227;-73
2022/06/30 20:25:30;;;;;;;0.80;0.80;;;;;;;;;;5069355;28;20219;-73
2022/06/30 20:27:56;;;;;;;0.77;0.77;;;;;;;;;;5073212;28;20229;-73
2022/06/30 20:30:22;;;;;;;0.80;0.80;;;;;;;;;;5064959;28;20230;-72
2022/06/30 20:32:48;;;;;;;0.70;0.70;;;;;;;;;;5055151;28;20218;-71
2022/06/30 20:35:14;;;;;;;0.80;0.80;;;;;;;;;;5061483;28;20262;-73
2022/06/30 20:37:40;;;;;;;0.70;0.70;;;;;;;;;;5060215;28;20215;-73
2022/06/30 20:40:06;;;;;;;0.80;0.80;;;;;;;;;;5049425;28;20226;-73
2022/06/30 20:42:32;;;;;;;0.70;0.70;;;;;;;;;;5060934;28;20258;-73
2022/06/30 20:44:58;;;;;;;0.67;0.67;;;;;;;;;;5048300;28;20241;-72
2022/06/30 20:51:31;;;;;;;0.70;0.70;;;;;;;;;;5066436;28;20227;-72
2022/06/30 20:52:55;;;;;;;0.70;0.70;;;;;;;;;;5058904;28;21746;-72
2022/06/30 20:55:22;;;;;;;0.70;0.70;;;;;;;;;;5057410;28;20227;-72
2022/06/30 20:57:48;;;;;;;0.70;0.70;;;;;;;;;;5051373;28;20219;-73
2022/06/30 21:00:14;;;;;;;0.70;0.70;;;;;;;;;;5034026;28;21169;-72